createdAt,value
2022-11-12T00:03:33.539Z,100791.84
2022-11-12T00:06:00.374Z,100783.91
2022-11-12T00:08:27.323Z,100822.63
2022-11-12T00:10:54.271Z,100824.72
2022-11-12T00:13:21.003Z,100817.59
2022-11-12T00:15:47.945Z,100794.81
2022-11-12T00:18:14.861Z,100819.72
2022-11-12T00:20:41.782Z,100784.78
2022-11-12T00:23:09.107Z,100808.59
2022-11-12T00:25:36.455Z,100785.94
2022-11-12T00:28:08.602Z,100807.31
2022-11-12T00:30:38.714Z,100805.75
2022-11-12T00:33:05.775Z,100821.75
2022-11-12T00:35:33.367Z,100820.53
2022-11-12T00:38:01.208Z,100778.34
2022-11-12T00:40:29.077Z,100820.03
2022-11-12T00:42:56.287Z,100830.78
2022-11-12T00:45:23.311Z,100818.09
2022-11-12T00:47:50.044Z,100808.22
2022-11-12T00:50:16.991Z,100788.59
2022-11-12T00:52:44.213Z,100819.97
2022-11-12T00:55:11.430Z,100814.88
2022-11-12T00:57:38.256Z,100815.91
2022-11-12T01:00:08.501Z,100824.06
2022-11-12T01:02:42.197Z,100815.13
2022-11-12T01:05:10.456Z,100821.94
2022-11-12T01:07:37.243Z,100822.59
2022-11-12T01:10:05.349Z,100777.34
2022-11-12T01:12:32.298Z,100795.34
2022-11-12T01:14:59.549Z,100813.22
2022-11-12T01:17:26.466Z,100810.34
2022-11-12T01:19:53.242Z,100785.63
2022-11-12T01:22:19.979Z,100801.00
2022-11-12T01:24:46.666Z,100806.47
2022-11-12T01:27:13.423Z,100784.28
2022-11-12T01:29:41.138Z,100798.56
2022-11-12T01:32:08.197Z,100786.41
2022-11-12T01:34:35.174Z,100769.09
2022-11-12T01:37:02.942Z,100795.75
2022-11-12T01:39:29.630Z,100772.31
2022-11-12T01:41:56.413Z,100771.66
2022-11-12T01:44:27.145Z,100788.38
2022-11-12T01:47:03.083Z,100799.34
2022-11-12T01:49:41.705Z,100806.41
2022-11-12T01:52:21.353Z,100801.63
2022-11-12T01:54:51.740Z,100803.28
2022-11-12T01:57:33.462Z,100795.19
2022-11-12T02:00:06.681Z,100794.34
2022-11-12T02:02:35.037Z,100793.78
2022-11-12T02:05:02.995Z,100799.75
2022-11-12T02:07:31.128Z,100789.38
2022-11-12T02:10:00.033Z,100773.91
2022-11-12T02:12:45.742Z,100782.34
2022-11-12T02:15:12.639Z,100781.16
2022-11-12T02:17:39.750Z,100780.16
2022-11-12T02:20:10.768Z,100781.53
2022-11-12T02:22:37.495Z,100774.81
2022-11-12T02:25:05.216Z,100774.97
2022-11-12T02:27:32.263Z,100761.97
2022-11-12T02:29:59.051Z,100750.84
2022-11-12T02:32:25.755Z,100754.81
2022-11-12T02:34:52.464Z,100750.22
2022-11-12T02:37:19.194Z,100754.53
2022-11-12T02:39:45.852Z,100757.19
2022-11-12T02:42:12.542Z,100752.97
2022-11-12T02:44:39.353Z,100753.13
2022-11-12T02:47:06.134Z,100752.34
2022-11-12T02:49:32.880Z,100765.72
2022-11-12T02:51:59.631Z,100762.50
2022-11-12T02:54:26.334Z,100752.34
2022-11-12T02:56:53.133Z,100763.75
2022-11-12T02:59:19.846Z,100763.13
2022-11-12T03:01:46.520Z,100772.94
2022-11-12T03:04:13.281Z,100735.88
2022-11-12T03:06:40.084Z,100757.56
2022-11-12T03:09:06.893Z,100761.34
2022-11-12T03:11:33.870Z,100773.78
2022-11-12T03:14:02.498Z,100777.81
2022-11-12T03:16:29.203Z,100759.47
2022-11-12T03:18:55.982Z,100784.81
2022-11-12T03:21:22.700Z,100770.25
2022-11-12T03:23:49.418Z,100779.50
2022-11-12T03:26:16.137Z,100785.09
2022-11-12T03:28:42.831Z,100786.09
2022-11-12T03:31:12.062Z,100783.72
2022-11-12T03:33:38.786Z,100773.31
2022-11-12T03:36:05.739Z,100769.72
2022-11-12T03:38:32.460Z,100771.44
2022-11-12T03:40:59.148Z,100758.34
2022-11-12T03:43:25.978Z,100770.25
2022-11-12T03:45:52.673Z,100772.44
2022-11-12T03:48:19.437Z,100747.94
2022-11-12T03:50:46.153Z,100760.84
2022-11-12T03:53:12.991Z,100760.69
2022-11-12T03:55:39.697Z,100749.72
2022-11-12T03:58:06.392Z,100757.03
2022-11-12T04:00:33.207Z,100761.78
2022-11-12T04:03:00.346Z,100755.09
2022-11-12T04:05:46.066Z,100743.16
2022-11-12T04:08:32.825Z,100752.22
2022-11-12T04:10:59.821Z,100741.97
2022-11-12T04:13:29.622Z,100735.22
2022-11-12T04:16:34.924Z,100755.22
2022-11-12T04:19:21.892Z,100760.91
2022-11-12T04:21:51.395Z,100760.06
2022-11-12T04:24:39.332Z,100754.88
2022-11-12T04:27:07.513Z,100748.28
2022-11-12T04:29:52.555Z,100756.91
2022-11-12T04:32:19.437Z,100743.19
2022-11-12T04:34:46.189Z,100762.31
2022-11-12T04:37:13.053Z,100760.78
2022-11-12T04:39:39.746Z,100758.13
2022-11-12T04:42:27.369Z,100736.59
2022-11-12T04:44:59.984Z,100754.75
2022-11-12T04:47:35.786Z,100765.81
2022-11-12T04:50:15.078Z,100728.06
2022-11-12T04:52:41.778Z,100751.84
2022-11-12T04:55:09.172Z,100764.78
2022-11-12T04:57:36.702Z,100766.66
2022-11-12T05:00:06.077Z,100755.38
2022-11-12T05:02:32.733Z,100747.13
2022-11-12T05:04:59.404Z,100757.41
2022-11-12T05:07:26.121Z,100732.38
2022-11-12T05:09:52.835Z,100724.63
2022-11-12T05:12:19.840Z,100743.53
2022-11-12T05:14:46.555Z,100748.69
2022-11-12T05:17:13.212Z,100731.28
2022-11-12T05:19:40.052Z,100739.44
2022-11-12T05:22:07.351Z,100733.47
2022-11-12T05:24:42.636Z,100753.44
2022-11-12T05:27:15.915Z,100745.63
2022-11-12T05:29:43.082Z,100750.78
2022-11-12T05:32:13.180Z,100758.38
2022-11-12T05:34:40.455Z,100760.50
2022-11-12T05:37:11.701Z,100757.41
2022-11-12T05:39:38.501Z,100751.00
2022-11-12T05:42:13.036Z,100760.78
2022-11-12T05:44:41.006Z,100761.19
2022-11-12T05:47:07.968Z,100754.97
2022-11-12T05:49:34.683Z,100765.88
2022-11-12T05:52:01.340Z,100778.38
2022-11-12T05:54:28.157Z,100746.09
2022-11-12T05:56:54.873Z,100768.16
2022-11-12T05:59:22.377Z,100759.34
2022-11-12T06:01:49.253Z,100778.09
2022-11-12T06:04:16.666Z,100770.34
2022-11-12T06:06:44.388Z,100774.50
2022-11-12T06:09:11.733Z,100781.69
2022-11-12T06:11:39.345Z,100780.50
2022-11-12T06:14:06.530Z,100789.25
2022-11-12T06:16:33.751Z,100790.69
2022-11-12T06:19:00.542Z,100783.28
2022-11-12T06:21:28.019Z,100787.16
2022-11-12T06:23:58.355Z,100794.28
2022-11-12T06:26:27.102Z,100790.28
2022-11-12T06:28:54.393Z,100790.59
2022-11-12T06:31:21.872Z,100755.31
2022-11-12T06:33:48.858Z,100793.75
2022-11-12T06:36:17.884Z,100803.63
2022-11-12T06:38:45.532Z,100809.19
2022-11-12T06:41:13.708Z,100773.88
2022-11-12T06:43:41.231Z,100801.91
2022-11-12T06:46:14.361Z,100803.56
2022-11-12T06:48:41.611Z,100789.59
2022-11-12T06:51:11.914Z,100801.88
2022-11-12T06:53:38.715Z,100807.59
2022-11-12T06:56:07.251Z,100794.06
2022-11-12T06:58:34.420Z,100809.75
2022-11-12T07:01:11.765Z,100815.00
2022-11-12T07:03:40.250Z,100811.19
2022-11-12T07:06:11.744Z,100805.56
2022-11-12T07:08:39.291Z,100809.03
2022-11-12T07:11:06.889Z,100807.31
2022-11-12T07:13:35.352Z,100805.78
2022-11-12T07:16:02.480Z,100812.34
2022-11-12T07:18:29.891Z,100791.81
2022-11-12T07:21:05.172Z,100799.81
2022-11-12T07:23:33.523Z,100795.66
2022-11-12T07:26:05.394Z,100802.06
2022-11-12T07:28:32.442Z,100787.44
2022-11-12T07:31:04.492Z,100816.88
2022-11-12T07:33:31.596Z,100810.53
2022-11-12T07:36:00.549Z,100792.28
2022-11-12T07:38:28.874Z,100822.97
2022-11-12T07:41:01.868Z,100822.75
2022-11-12T07:43:30.540Z,100828.72
2022-11-12T07:46:12.084Z,100827.94
2022-11-12T07:48:39.872Z,100826.41
2022-11-12T07:51:16.589Z,100817.16
2022-11-12T07:53:45.015Z,100799.25
2022-11-12T07:56:14.341Z,100811.69
2022-11-12T07:58:41.190Z,100820.38
2022-11-12T08:01:23.157Z,100822.88
2022-11-12T08:03:49.982Z,100822.94
2022-11-12T08:06:16.916Z,100815.63
2022-11-12T08:08:43.740Z,100825.25
2022-11-12T08:11:10.720Z,100828.72
2022-11-12T08:13:37.652Z,100808.97
2022-11-12T08:16:04.723Z,100826.03
2022-11-12T08:18:32.121Z,100813.59
2022-11-12T08:21:04.133Z,100832.16
2022-11-12T08:23:31.022Z,100832.38
2022-11-12T08:25:59.568Z,100809.56
2022-11-12T08:28:26.799Z,100798.38
2022-11-12T08:30:54.302Z,100822.59
2022-11-12T08:33:21.213Z,100826.25
2022-11-12T08:35:47.996Z,100791.75
2022-11-12T08:38:14.994Z,100817.69
2022-11-12T08:40:41.739Z,100824.13
2022-11-12T08:43:10.791Z,100820.94
2022-11-12T08:45:39.560Z,100784.81
2022-11-12T08:48:09.327Z,100826.19
2022-11-12T08:50:36.727Z,100807.34
2022-11-12T08:53:05.712Z,100818.78
2022-11-12T08:55:35.826Z,100823.25
2022-11-12T08:58:02.692Z,100827.44
2022-11-12T09:00:34.796Z,100829.34
2022-11-12T09:03:02.474Z,100826.22
2022-11-12T09:05:29.521Z,100826.75
2022-11-12T09:08:01.172Z,100831.59
2022-11-12T09:10:28.875Z,100830.34
2022-11-12T09:12:55.664Z,100834.81
2022-11-12T09:15:37.500Z,100817.25
2022-11-12T09:18:08.054Z,100845.94
2022-11-12T09:20:35.006Z,100841.06
2022-11-12T09:23:13.243Z,100844.28
2022-11-12T09:25:41.071Z,100848.28
2022-11-12T09:28:18.976Z,100861.16
2022-11-12T09:30:50.364Z,100844.88
2022-11-12T09:33:28.411Z,100844.19
2022-11-12T09:35:55.672Z,100824.78
2022-11-12T09:38:22.771Z,100830.28
2022-11-12T09:40:52.179Z,100847.06
2022-11-12T09:43:19.116Z,100844.97
2022-11-12T09:46:06.352Z,100844.47
2022-11-12T09:48:43.113Z,100838.31
2022-11-12T09:51:21.801Z,100839.09
2022-11-12T09:53:55.393Z,100841.44
2022-11-12T09:56:22.652Z,100840.06
2022-11-12T09:58:50.682Z,100835.97
2022-11-12T10:01:17.796Z,100847.22
2022-11-12T10:03:44.559Z,100852.28
2022-11-12T10:06:22.439Z,100847.78
2022-11-12T10:08:49.110Z,100856.59
2022-11-12T10:12:03.894Z,100842.19
2022-11-12T10:14:36.750Z,100852.44
2022-11-12T10:17:18.599Z,100817.00
2022-11-12T10:20:00.278Z,100838.25
2022-11-12T10:22:48.573Z,100836.50
2022-11-12T10:25:20.167Z,100824.44
2022-11-12T10:27:49.488Z,100827.97
2022-11-12T10:30:19.792Z,100820.53
2022-11-12T10:32:48.073Z,100835.38
2022-11-12T10:35:20.950Z,100820.75
2022-11-12T10:37:53.637Z,100819.22
2022-11-12T10:40:44.119Z,100820.38
2022-11-12T10:43:16.973Z,100818.28
2022-11-12T10:45:45.740Z,100814.25
2022-11-12T10:48:30.669Z,100810.06
2022-11-12T10:50:57.742Z,100778.31
2022-11-12T10:53:36.074Z,100801.75
2022-11-12T10:56:05.430Z,100803.38
2022-11-12T10:58:32.481Z,100796.09
2022-11-12T11:01:05.169Z,100787.00
2022-11-12T11:03:44.463Z,100785.53
2022-11-12T11:06:26.017Z,100801.44
2022-11-12T11:09:07.747Z,100785.75
2022-11-12T11:11:34.770Z,100784.53
2022-11-12T11:14:20.338Z,100779.69
2022-11-12T11:16:55.399Z,100781.31
2022-11-12T11:19:22.962Z,100770.50
2022-11-12T11:21:49.671Z,100779.78
2022-11-12T11:24:35.782Z,100774.19
2022-11-12T11:27:28.697Z,100767.22
2022-11-12T11:29:58.472Z,100762.47
2022-11-12T11:32:51.529Z,100764.28
2022-11-12T11:35:43.056Z,100758.16
2022-11-12T11:38:31.068Z,100755.09
2022-11-12T11:41:30.453Z,100752.44
2022-11-12T11:44:35.942Z,100757.50
2022-11-12T11:47:09.715Z,100764.09
2022-11-12T11:50:23.883Z,100756.25
2022-11-12T11:53:15.850Z,100752.19
2022-11-12T11:56:09.851Z,100744.59
2022-11-12T11:58:56.736Z,100757.78
2022-11-12T12:02:01.320Z,100748.72
2022-11-12T12:04:48.704Z,100736.56
2022-11-12T12:07:29.768Z,100737.81
2022-11-12T12:10:46.243Z,100733.56
2022-11-12T12:13:28.831Z,100734.22
2022-11-12T12:15:58.616Z,100726.50
2022-11-12T12:18:38.437Z,100720.19
2022-11-12T12:21:18.672Z,100717.41
2022-11-12T12:23:55.422Z,100716.53
2022-11-12T12:26:35.482Z,100718.13
2022-11-12T12:29:07.762Z,100720.50
2022-11-12T12:31:42.139Z,100699.00
2022-11-12T12:34:26.827Z,100705.31
2022-11-12T12:37:04.411Z,100669.66
2022-11-12T12:40:01.546Z,100695.75
2022-11-12T12:42:37.729Z,100674.13
2022-11-12T12:45:44.257Z,100663.00
2022-11-12T12:48:25.279Z,100687.63
2022-11-12T12:50:53.819Z,100684.41
2022-11-12T12:53:29.815Z,100681.88
2022-11-12T12:55:59.180Z,100670.34
2022-11-12T12:58:28.555Z,100668.72
2022-11-12T13:01:08.233Z,100673.66
2022-11-12T13:03:44.064Z,100670.31
2022-11-12T13:06:24.240Z,100672.22
2022-11-12T13:09:01.701Z,100673.09
2022-11-12T13:11:59.046Z,100666.34
2022-11-12T13:14:31.771Z,100658.56
2022-11-12T13:17:01.726Z,100660.63
2022-11-12T13:19:32.175Z,100641.88
2022-11-12T13:22:36.948Z,100662.63
2022-11-12T13:25:13.476Z,100660.59
2022-11-12T13:27:46.090Z,100663.47
2022-11-12T13:30:18.552Z,100651.25
2022-11-12T13:32:51.052Z,100654.88
2022-11-12T13:35:17.928Z,100653.06
2022-11-12T13:37:53.413Z,100648.75
2022-11-12T13:40:38.827Z,100649.63
2022-11-12T13:43:17.969Z,100639.56
2022-11-12T13:46:12.283Z,100649.50
2022-11-12T13:48:45.864Z,100619.75
2022-11-12T13:51:25.471Z,100641.75
2022-11-12T13:53:52.296Z,100617.72
2022-11-12T13:56:30.992Z,100630.63
2022-11-12T13:59:18.291Z,100636.63
2022-11-12T14:01:47.547Z,100622.06
2022-11-12T14:04:16.868Z,100583.97
2022-11-12T14:06:52.262Z,100626.63
2022-11-12T14:09:29.925Z,100622.22
2022-11-12T14:11:56.685Z,100622.88
2022-11-12T14:14:54.202Z,100619.94
2022-11-12T14:17:23.851Z,100606.59
2022-11-12T14:20:06.023Z,100612.88
2022-11-12T14:22:50.855Z,100610.84
2022-11-12T14:25:27.953Z,100595.97
2022-11-12T14:27:56.112Z,100600.81
2022-11-12T14:30:26.213Z,100602.72
2022-11-12T14:32:58.325Z,100605.53
2022-11-12T14:35:27.362Z,100594.66
2022-11-12T14:37:59.220Z,100599.19
2022-11-12T14:40:28.814Z,100561.69
2022-11-12T14:42:55.799Z,100578.59
2022-11-12T14:45:23.891Z,100601.41
2022-11-12T14:47:53.488Z,100593.19
2022-11-12T14:50:25.356Z,100567.06
2022-11-12T14:53:00.540Z,100592.34
2022-11-12T14:55:31.836Z,100583.28
2022-11-12T14:57:59.813Z,100581.56
2022-11-12T15:00:32.497Z,100588.34
2022-11-12T15:03:02.111Z,100585.19
2022-11-12T15:05:29.120Z,100561.41
2022-11-12T15:08:08.572Z,100593.84
2022-11-12T15:10:35.328Z,100581.72
2022-11-12T15:13:22.489Z,100575.84
2022-11-12T15:16:05.322Z,100569.16
2022-11-12T15:18:34.016Z,100562.81
2022-11-12T15:21:27.851Z,100576.47
2022-11-12T15:24:03.435Z,100575.56
2022-11-12T15:26:43.815Z,100596.66
2022-11-12T15:29:10.631Z,100593.78
2022-11-12T15:31:48.521Z,100590.25
2022-11-12T15:34:43.820Z,100603.00
2022-11-12T15:37:12.125Z,100599.94
2022-11-12T15:40:11.455Z,100592.09
2022-11-12T15:42:40.242Z,100583.75
2022-11-12T15:45:15.930Z,100605.50
2022-11-12T15:47:42.801Z,100578.16
2022-11-12T15:50:22.829Z,100572.53
2022-11-12T15:52:50.405Z,100582.84
2022-11-12T15:55:19.117Z,100608.66
2022-11-12T15:57:51.698Z,100600.00
2022-11-12T16:00:33.131Z,100598.56
2022-11-12T16:03:12.017Z,100587.25
2022-11-12T16:05:39.082Z,100599.81
2022-11-12T16:08:06.164Z,100594.16
2022-11-12T16:10:33.047Z,100597.34
2022-11-12T16:13:01.379Z,100608.31
2022-11-12T16:15:28.239Z,100590.28
2022-11-12T16:17:56.226Z,100586.94
2022-11-12T16:20:34.378Z,100603.22
2022-11-12T16:23:01.545Z,100597.50
2022-11-12T16:25:31.234Z,100576.69
2022-11-12T16:27:58.499Z,100614.25
2022-11-12T16:30:28.428Z,100609.16
2022-11-12T16:32:59.300Z,100613.72
2022-11-12T16:35:27.018Z,100610.47
2022-11-12T16:37:55.319Z,100608.28
2022-11-12T16:40:25.208Z,100608.53
2022-11-12T16:42:52.338Z,100602.78
2022-11-12T16:45:21.251Z,100594.47
2022-11-12T16:47:50.175Z,100595.97
2022-11-12T16:50:21.031Z,100581.25
2022-11-12T16:52:48.654Z,100598.06
2022-11-12T16:55:16.145Z,100617.25
2022-11-12T16:57:43.592Z,100622.06
2022-11-12T17:00:16.151Z,100623.41
2022-11-12T17:02:46.218Z,100581.41
2022-11-12T17:05:20.021Z,100620.53
2022-11-12T17:07:47.453Z,100610.75
2022-11-12T17:10:15.278Z,100618.00
2022-11-12T17:12:43.670Z,100606.50
2022-11-12T17:15:10.535Z,100612.19
2022-11-12T17:17:37.656Z,100616.88
2022-11-12T17:20:04.860Z,100606.53
2022-11-12T17:22:31.957Z,100611.41
2022-11-12T17:25:01.501Z,100599.34
2022-11-12T17:27:28.627Z,100614.13
2022-11-12T17:29:55.900Z,100607.47
2022-11-12T17:32:24.001Z,100608.91
2022-11-12T17:34:52.618Z,100607.75
2022-11-12T17:37:21.283Z,100603.78
2022-11-12T17:39:48.414Z,100567.75
2022-11-12T17:42:15.406Z,100591.50
2022-11-12T17:44:42.500Z,100605.63
2022-11-12T17:47:10.081Z,100597.88
2022-11-12T17:49:37.124Z,100597.75
2022-11-12T17:52:04.898Z,100606.72
2022-11-12T17:54:32.274Z,100588.03
2022-11-12T17:56:59.757Z,100565.94
2022-11-12T17:59:27.733Z,100593.19
2022-11-12T18:01:55.036Z,100589.75
2022-11-12T18:04:23.799Z,100559.63
2022-11-12T18:06:51.495Z,100585.59
2022-11-12T18:09:19.217Z,100593.69
2022-11-12T18:11:49.507Z,100591.69
2022-11-12T18:14:17.618Z,100587.78
2022-11-12T18:16:45.433Z,100590.22
2022-11-12T18:19:15.986Z,100579.88
2022-11-12T18:21:43.258Z,100592.16
2022-11-12T18:24:15.859Z,100580.75
2022-11-12T18:26:44.449Z,100585.38
2022-11-12T18:29:12.891Z,100577.22
2022-11-12T18:31:41.013Z,100573.63
2022-11-12T18:34:11.500Z,100584.78
2022-11-12T18:36:38.804Z,100573.72
2022-11-12T18:39:06.817Z,100571.78
2022-11-12T18:41:34.702Z,100594.59
2022-11-12T18:44:02.404Z,100593.16
2022-11-12T18:46:29.620Z,100588.09
2022-11-12T18:48:57.113Z,100574.53
2022-11-12T18:51:24.679Z,100574.72
2022-11-12T18:53:52.263Z,100581.03
2022-11-12T18:56:21.185Z,100586.25
2022-11-12T18:58:49.857Z,100576.72
2022-11-12T19:01:21.474Z,100587.13
2022-11-12T19:03:52.608Z,100594.88
2022-11-12T19:06:20.929Z,100589.59
2022-11-12T19:08:48.282Z,100589.59
2022-11-12T19:11:18.981Z,100600.75
2022-11-12T19:13:49.826Z,100591.81
2022-11-12T19:16:20.548Z,100597.84
2022-11-12T19:18:48.243Z,100595.19
2022-11-12T19:21:17.991Z,100599.25
2022-11-12T19:23:51.312Z,100580.59
2022-11-12T19:26:22.612Z,100579.78
2022-11-12T19:28:50.742Z,100581.28
2022-11-12T19:31:20.578Z,100589.84
2022-11-12T19:33:48.319Z,100595.81
2022-11-12T19:36:18.052Z,100582.88
2022-11-12T19:38:46.896Z,100569.16
2022-11-12T19:41:19.375Z,100593.22
2022-11-12T19:43:49.217Z,100591.09
2022-11-12T19:46:16.255Z,100566.66
2022-11-12T19:48:43.446Z,100558.22
2022-11-12T19:51:12.000Z,100571.06
2022-11-12T19:53:42.178Z,100587.78
2022-11-12T19:56:09.159Z,100594.75
2022-11-12T19:58:36.152Z,100593.59
2022-11-12T20:01:10.715Z,100596.25
2022-11-12T20:03:38.388Z,100592.81
2022-11-12T20:06:12.731Z,100598.47
2022-11-12T20:08:40.681Z,100581.88
2022-11-12T20:11:07.842Z,100584.06
2022-11-12T20:13:34.648Z,100558.97
2022-11-12T20:16:07.731Z,100547.09
2022-11-12T20:18:35.314Z,100582.13
2022-11-12T20:21:05.603Z,100583.06
2022-11-12T20:23:34.816Z,100571.25
2022-11-12T20:26:09.313Z,100583.53
2022-11-12T20:28:39.563Z,100559.09
2022-11-12T20:31:07.729Z,100566.00
2022-11-12T20:33:39.372Z,100561.44
2022-11-12T20:36:11.131Z,100568.69
2022-11-12T20:38:40.056Z,100567.75
2022-11-12T20:41:08.180Z,100571.19
2022-11-12T20:43:35.745Z,100562.66
2022-11-12T20:46:02.585Z,100558.78
2022-11-12T20:48:29.991Z,100562.38
2022-11-12T20:51:25.079Z,100565.88
2022-11-12T20:53:58.927Z,100568.41
2022-11-12T20:56:28.018Z,100565.09
2022-11-12T20:58:55.678Z,100553.41
2022-11-12T21:01:27.169Z,100556.56
2022-11-12T21:03:54.752Z,100549.56
2022-11-12T21:06:24.618Z,100560.72
2022-11-12T21:08:51.842Z,100562.63
2022-11-12T21:11:21.677Z,100554.31
2022-11-12T21:13:48.721Z,100543.78
2022-11-12T21:16:16.337Z,100553.53
2022-11-12T21:18:44.196Z,100560.84
2022-11-12T21:21:15.306Z,100561.69
2022-11-12T21:23:43.724Z,100566.13
2022-11-12T21:26:18.591Z,100559.97
2022-11-12T21:28:48.785Z,100556.53
2022-11-12T21:31:38.014Z,100571.94
2022-11-12T21:34:05.044Z,100570.28
2022-11-12T21:36:34.547Z,100541.22
2022-11-12T21:39:03.139Z,100563.22
2022-11-12T21:41:32.203Z,100562.31
2022-11-12T21:43:59.421Z,100548.59
2022-11-12T21:46:28.767Z,100559.88
2022-11-12T21:48:56.357Z,100564.31
2022-11-12T21:51:29.172Z,100565.09
2022-11-12T21:54:00.791Z,100543.47
2022-11-12T21:56:28.797Z,100551.56
2022-11-12T21:59:00.482Z,100533.47
2022-11-12T22:01:29.973Z,100552.56
2022-11-12T22:03:59.637Z,100542.16
2022-11-12T22:06:29.182Z,100552.56
2022-11-12T22:08:57.398Z,100551.44
2022-11-12T22:11:25.534Z,100549.50
2022-11-12T22:13:52.393Z,100508.75
2022-11-12T22:16:21.126Z,100537.72
2022-11-12T22:18:50.008Z,100533.22
2022-11-12T22:21:21.499Z,100522.72
2022-11-12T22:23:48.586Z,100529.56
2022-11-12T22:26:18.141Z,100512.25
2022-11-12T22:28:45.090Z,100531.34
2022-11-12T22:31:14.244Z,100529.88
2022-11-12T22:33:42.363Z,100531.56
2022-11-12T22:36:12.340Z,100518.16
2022-11-12T22:38:41.412Z,100514.50
2022-11-12T22:41:12.226Z,100510.78
2022-11-12T22:43:39.072Z,100504.50
2022-11-12T22:46:12.885Z,100502.66
2022-11-12T22:48:40.442Z,100487.78
2022-11-12T22:51:12.216Z,100503.31
2022-11-12T22:53:39.317Z,100474.91
2022-11-12T22:56:12.261Z,100499.69
2022-11-12T22:58:41.165Z,100480.69
2022-11-12T23:01:11.611Z,100478.16
2022-11-12T23:03:38.477Z,100466.75
2022-11-12T23:06:06.556Z,100502.00
2022-11-12T23:08:36.253Z,100502.00
2022-11-12T23:11:05.854Z,100474.22
2022-11-12T23:13:33.052Z,100487.84
2022-11-12T23:15:59.973Z,100501.06
2022-11-12T23:18:27.134Z,100470.13
2022-11-12T23:20:54.039Z,100491.66
2022-11-12T23:23:20.785Z,100499.34
2022-11-12T23:25:47.542Z,100492.41
2022-11-12T23:28:14.281Z,100489.00
2022-11-12T23:30:41.013Z,100497.88
2022-11-12T23:33:07.781Z,100466.56
2022-11-12T23:35:34.616Z,100448.69
2022-11-12T23:38:01.332Z,100491.38
2022-11-12T23:40:31.081Z,100487.19
2022-11-12T23:42:58.092Z,100475.78
2022-11-12T23:45:24.900Z,100472.06
2022-11-12T23:47:51.865Z,100467.09
2022-11-12T23:50:18.730Z,100464.91
2022-11-12T23:52:45.476Z,100465.31
2022-11-12T23:55:12.498Z,100442.56
2022-11-12T23:57:39.241Z,100455.91
